Test XHTML 1.0 Strict Page for WU-History Testing
Station Historical Data
 
Daily Summary for September 24, 2017 Units:  Both    English   Metric
« Previous Day
Next Day »
Daily Weekly Monthly Yearly Custom
  Current: High: Low: Average:
Temperature: 55.9 °F /  13.3 °C 55.9 °F /  13.3 °C 47.1 °F /  8.4 °C 50.1 °F /  10.1 °C
Dew Point: 54.8 °F /  12.7 °C 55.2 °F /  12.9 °C 47.1 °F /  8.4 °C 50 °F /  10 °C
Humidity: 96 % 100 % 96 % 100 %
Wind Speed: 6.9 mph /  11.1 km/h 10.4 mph /  16.7 km/h - 1.3 mph /  2.1 km/h
Wind Gust: 6.9 mph /  11.1 km/h 10.4 mph /  16.7 km/h - -
Wind:WSW - - SE
Pressure: 30.10 in /  1019.2 hPa 30.11 in /  1019.5 hPa 30.08 in /  1018.5 hPa -
Precipitation: 0.00 in /  0 mm      
Historical Graphs
 
 
Weather-Above Climate History
Untitled
Tabular Data for September 24, 2017
Time Temperature Dew Point Pressure Wind Wind Speed Wind Gust Humidity Rainfall Rate (Hourly) solar Conditions
00:02 52.5 °F /  11.4 °C 52.2 °F /  11.2 °C 30.11 in /  1019.5 hPa SSE 2.3 mph /  3.7 km/h 2.3 mph /  3.7 km/h 99 % 0.00 in /  0 mm 0.0 W/m2 CLR
00:07 52.7 °F /  11.5 °C 52.2 °F /  11.2 °C 30.10 in /  1019.2 hPa Calm     98 % 0.00 in /  0 mm 0.0 W/m2 CLR
00:12 52.7 °F /  11.5 °C 52.2 °F /  11.2 °C 30.10 in /  1019.2 hPa Calm     98 % 0.00 in /  0 mm 0.0 W/m2 CLR
00:17 52.7 °F /  11.5 °C 52.4 °F /  11.3 °C 30.11 in /  1019.5 hPa Calm     99 % 0.00 in /  0 mm 0.0 W/m2 CLR
00:22 52.5 °F /  11.4 °C 52.2 °F /  11.2 °C 30.11 in /  1019.5 hPa Calm     99 % 0.00 in /  0 mm 0.0 W/m2 CLR
00:28 52.7 °F /  11.5 °C 52.2 °F /  11.2 °C 30.11 in /  1019.5 hPa Calm     98 % 0.00 in /  0 mm 0.0 W/m2 CLR
00:33 52.5 °F /  11.4 °C 52.2 °F /  11.2 °C 30.11 in /  1019.5 hPa Calm     99 % 0.00 in /  0 mm 0.0 W/m2 CLR
00:38 52.5 °F /  11.4 °C 52.2 °F /  11.2 °C 30.11 in /  1019.5 hPa SE 1.2 mph /  1.9 km/h 1.2 mph /  1.9 km/h 99 % 0.00 in /  0 mm 0.0 W/m2 CLR
00:48 52.2 °F /  11.2 °C 51.9 °F /  11.1 °C 30.10 in /  1019.2 hPa Calm     99 % 0.00 in /  0 mm 0.0 W/m2 CLR
00:53 52.2 °F /  11.2 °C 51.9 °F /  11.1 °C 30.11 in /  1019.5 hPa SSE 1.7 mph /  2.7 km/h 1.7 mph /  2.7 km/h 99 % 0.00 in /  0 mm 0.0 W/m2 CLR
00:58 52.2 °F /  11.2 °C 51.9 °F /  11.1 °C 30.11 in /  1019.5 hPa Calm     99 % 0.00 in /  0 mm 0.0 W/m2 CLR
01:03 51.8 °F /  11 °C 51.5 °F /  10.8 °C 30.11 in /  1019.5 hPa ESE 0.8 mph /  1.3 km/h 0.8 mph /  1.3 km/h 99 % 0.00 in /  0 mm 0.0 W/m2 CLR
01:08 51.8 °F /  11 °C 51.8 °F /  11 °C 30.11 in /  1019.5 hPa SE 1.7 mph /  2.7 km/h 1.7 mph /  2.7 km/h 100 % 0.00 in /  0 mm 0.0 W/m2 CLR
01:13 51.6 °F /  10.9 °C 51.6 °F /  10.9 °C 30.10 in /  1019.2 hPa Calm     100 % 0.00 in /  0 mm 0.0 W/m2 CLR
01:18 51.6 °F /  10.9 °C 51.6 °F /  10.9 °C 30.10 in /  1019.2 hPa Calm     100 % 0.00 in /  0 mm 0.0 W/m2 CLR
01:23 51.4 °F /  10.8 °C 51.4 °F /  10.8 °C 30.10 in /  1019.2 hPa Calm     100 % 0.00 in /  0 mm 0.0 W/m2 CLR
01:28 51.4 °F /  10.8 °C 51.4 °F /  10.8 °C 30.10 in /  1019.2 hPa Calm     100 % 0.00 in /  0 mm 0.0 W/m2 CLR
01:33 51.3 °F /  10.7 °C 51.3 °F /  10.7 °C 30.10 in /  1019.2 hPa Calm     100 % 0.00 in /  0 mm 0.0 W/m2 CLR
01:38 51.6 °F /  10.9 °C 51.6 °F /  10.9 °C 30.10 in /  1019.2 hPa Calm     100 % 0.00 in /  0 mm 0.0 W/m2 CLR
01:43 51.6 °F /  10.9 °C 51.6 °F /  10.9 °C 30.10 in /  1019.2 hPa Calm     100 % 0.00 in /  0 mm 0.0 W/m2 CLR
01:48 51.6 °F /  10.9 °C 51.6 °F /  10.9 °C 30.11 in /  1019.5 hPa ESE 0.8 mph /  1.3 km/h 0.8 mph /  1.3 km/h 100 % 0.00 in /  0 mm 0.0 W/m2 CLR
01:53 51.6 °F /  10.9 °C 51.3 °F /  10.7 °C 30.10 in /  1019.2 hPa SE 1.2 mph /  1.9 km/h 1.2 mph /  1.9 km/h 99 % 0.00 in /  0 mm 0.0 W/m2 CLR
01:58 51.6 °F /  10.9 °C 51.6 °F /  10.9 °C 30.10 in /  1019.2 hPa Calm     100 % 0.00 in /  0 mm 0.0 W/m2 CLR
02:03 51.6 °F /  10.9 °C 51.6 °F /  10.9 °C 30.09 in /  1018.8 hPa Calm     100 % 0.00 in /  0 mm 0.0 W/m2 CLR
02:09 51.4 °F /  10.8 °C 51.4 °F /  10.8 °C 30.09 in /  1018.8 hPa Calm     100 % 0.00 in /  0 mm 0.0 W/m2 CLR
02:14 51.3 °F /  10.7 °C 51.3 °F /  10.7 °C 30.10 in /  1019.2 hPa SE 2.5 mph /  4 km/h 2.5 mph /  4 km/h 100 % 0.00 in /  0 mm 0.0 W/m2 CLR
02:19 51.3 °F /  10.7 °C 51.3 °F /  10.7 °C 30.10 in /  1019.2 hPa East 1.2 mph /  1.9 km/h 1.2 mph /  1.9 km/h 100 % 0.00 in /  0 mm 0.0 W/m2 CLR
02:24 50.9 °F /  10.5 °C 50.9 °F /  10.5 °C 30.10 in /  1019.2 hPa ESE 0.3 mph /  0.5 km/h   100 % 0.00 in /  0 mm 0.0 W/m2 CLR
02:29 50.7 °F /  10.4 °C 50.7 °F /  10.4 °C 30.09 in /  1018.8 hPa SSE 1.2 mph /  1.9 km/h 1.2 mph /  1.9 km/h 100 % 0.00 in /  0 mm 0.0 W/m2 CLR
02:34 50.4 °F /  10.2 °C 50.4 °F /  10.2 °C 30.10 in /  1019.2 hPa Calm     100 % 0.00 in /  0 mm 0.0 W/m2 CLR
02:39 50.0 °F /  10 °C 50.0 °F /  10 °C 30.09 in /  1018.8 hPa Calm     100 % 0.00 in /  0 mm 0.0 W/m2 CLR
02:44 49.8 °F /  9.9 °C 49.8 °F /  9.9 °C 30.09 in /  1018.8 hPa Calm     100 % 0.00 in /  0 mm 0.0 W/m2 CLR
02:49 49.5 °F /  9.7 °C 49.5 °F /  9.7 °C 30.10 in /  1019.2 hPa Calm     100 % 0.00 in /  0 mm 0.0 W/m2 CLR
02:54 49.5 °F /  9.7 °C 49.5 °F /  9.7 °C 30.10 in /  1019.2 hPa ESE 0.3 mph /  0.5 km/h   100 % 0.00 in /  0 mm 0.0 W/m2 CLR
02:59 49.1 °F /  9.5 °C 49.1 °F /  9.5 °C 30.10 in /  1019.2 hPa ESE 1.2 mph /  1.9 km/h 1.2 mph /  1.9 km/h 100 % 0.00 in /  0 mm 0.0 W/m2 CLR
03:04 49.1 °F /  9.5 °C 49.1 °F /  9.5 °C 30.10 in /  1019.2 hPa Calm     100 % 0.00 in /  0 mm 0.0 W/m2 CLR
03:09 48.9 °F /  9.4 °C 48.9 °F /  9.4 °C 30.09 in /  1018.8 hPa SE 0.1 mph /  0.2 km/h   100 % 0.00 in /  0 mm 0.0 W/m2 CLR
03:14 48.7 °F /  9.3 °C 48.7 °F /  9.3 °C 30.09 in /  1018.8 hPa SSE 2.3 mph /  3.7 km/h 2.3 mph /  3.7 km/h 100 % 0.00 in /  0 mm 0.0 W/m2 CLR
03:18 48.4 °F /  9.1 °C 48.4 °F /  9.1 °C 30.09 in /  1018.8 hPa SE 2.5 mph /  4 km/h 2.5 mph /  4 km/h 100 % 0.00 in /  0 mm 0.0 W/m2 CLR
03:23 48.2 °F /  9 °C 48.2 °F /  9 °C 30.09 in /  1018.8 hPa SE 1.8 mph /  2.9 km/h 1.8 mph /  2.9 km/h 100 % 0.00 in /  0 mm 0.0 W/m2 CLR
03:28 48.2 °F /  9 °C 48.2 °F /  9 °C 30.09 in /  1018.8 hPa SE 0.4 mph /  0.6 km/h   100 % 0.00 in /  0 mm 0.0 W/m2 CLR
03:33 48.4 °F /  9.1 °C 48.4 °F /  9.1 °C 30.10 in /  1019.2 hPa SE 0.3 mph /  0.5 km/h 0.3 mph /  0.5 km/h 100 % 0.00 in /  0 mm 0.0 W/m2 CLR
03:38 48.2 °F /  9 °C 48.2 °F /  9 °C 30.09 in /  1018.8 hPa ESE 0.3 mph /  0.5 km/h 0.3 mph /  0.5 km/h 100 % 0.00 in /  0 mm 0.0 W/m2 CLR
03:43 48.0 °F /  8.9 °C 48.0 °F /  8.9 °C 30.09 in /  1018.8 hPa SE 1.7 mph /  2.7 km/h 1.7 mph /  2.7 km/h 100 % 0.00 in /  0 mm 0.0 W/m2 CLR
03:48 48.0 °F /  8.9 °C 48.0 °F /  8.9 °C 30.09 in /  1018.8 hPa Calm     100 % 0.00 in /  0 mm 0.0 W/m2 CLR
03:54 47.8 °F /  8.8 °C 47.8 °F /  8.8 °C 30.10 in /  1019.2 hPa ESE 1.4 mph /  2.3 km/h 1.4 mph /  2.3 km/h 100 % 0.00 in /  0 mm 0.0 W/m2 CLR
03:59 47.7 °F /  8.7 °C 47.7 °F /  8.7 °C 30.09 in /  1018.8 hPa SE 2.6 mph /  4.2 km/h 2.6 mph /  4.2 km/h 100 % 0.00 in /  0 mm 0.0 W/m2 CLR
04:04 47.7 °F /  8.7 °C 47.7 °F /  8.7 °C 30.09 in /  1018.8 hPa Calm     100 % 0.00 in /  0 mm 0.0 W/m2 CLR
04:09 47.5 °F /  8.6 °C 47.5 °F /  8.6 °C 30.09 in /  1018.8 hPa SE 1.2 mph /  1.9 km/h   100 % 0.00 in /  0 mm 0.0 W/m2 CLR
04:15 47.5 °F /  8.6 °C 47.5 °F /  8.6 °C 30.09 in /  1018.8 hPa Calm     100 % 0.00 in /  0 mm 0.0 W/m2 CLR
04:21 47.3 °F /  8.5 °C 47.3 °F /  8.5 °C 30.09 in /  1018.8 hPa SE 1.2 mph /  1.9 km/h 1.2 mph /  1.9 km/h 100 % 0.00 in /  0 mm 0.0 W/m2 CLR
04:26 47.5 °F /  8.6 °C 47.5 °F /  8.6 °C 30.09 in /  1018.8 hPa Calm     100 % 0.00 in /  0 mm 0.0 W/m2 CLR
04:27 47.5 °F /  8.6 °C 47.5 °F /  8.6 °C 30.09 in /  1018.8 hPa South 0.1 mph /  0.2 km/h 0.1 mph /  0.2 km/h 100 % 0.00 in /  0 mm 0.0 W/m2 CLR
04:32 47.3 °F /  8.5 °C 47.3 °F /  8.5 °C 30.09 in /  1018.8 hPa Calm     100 % 0.00 in /  0 mm 0.0 W/m2 CLR
04:38 47.3 °F /  8.5 °C 47.3 °F /  8.5 °C 30.08 in /  1018.5 hPa SSE 0.4 mph /  0.6 km/h 0.4 mph /  0.6 km/h 100 % 0.00 in /  0 mm 0.0 W/m2 CLR
04:43 47.3 °F /  8.5 °C 47.3 °F /  8.5 °C 30.08 in /  1018.5 hPa Calm     100 % 0.00 in /  0 mm 0.0 W/m2 CLR
04:48 47.3 °F /  8.5 °C 47.3 °F /  8.5 °C 30.08 in /  1018.5 hPa Calm     100 % 0.00 in /  0 mm 0.0 W/m2 CLR
04:53 47.3 °F /  8.5 °C 47.3 °F /  8.5 °C 30.08 in /  1018.5 hPa SE 2.3 mph /  3.7 km/h 2.3 mph /  3.7 km/h 100 % 0.00 in /  0 mm 0.0 W/m2 CLR
04:54 47.3 °F /  8.5 °C 47.3 °F /  8.5 °C 30.08 in /  1018.5 hPa SE 2.3 mph /  3.7 km/h 2.3 mph /  3.7 km/h 100 % 0.00 in /  0 mm 0.0 W/m2 CLR
04:59 47.3 °F /  8.5 °C 47.3 °F /  8.5 °C 30.08 in /  1018.5 hPa Calm     100 % 0.00 in /  0 mm 0.0 W/m2 CLR
05:04 47.3 °F /  8.5 °C 47.3 °F /  8.5 °C 30.08 in /  1018.5 hPa Calm     100 % 0.00 in /  0 mm 0.0 W/m2 CLR
05:10 47.3 °F /  8.5 °C 47.3 °F /  8.5 °C 30.08 in /  1018.5 hPa Calm     100 % 0.00 in /  0 mm 0.0 W/m2 CLR
05:15 47.1 °F /  8.4 °C 47.1 °F /  8.4 °C 30.09 in /  1018.8 hPa Calm     100 % 0.00 in /  0 mm 0.0 W/m2 CLR
05:20 47.1 °F /  8.4 °C 47.1 °F /  8.4 °C 30.08 in /  1018.5 hPa SE 3.0 mph /  4.8 km/h 3.0 mph /  4.8 km/h 100 % 0.00 in /  0 mm 0.0 W/m2 CLR
05:25 47.1 °F /  8.4 °C 47.1 °F /  8.4 °C 30.09 in /  1018.8 hPa SSE 2.3 mph /  3.7 km/h 2.3 mph /  3.7 km/h 100 % 0.00 in /  0 mm 0.0 W/m2 CLR
05:30 47.1 °F /  8.4 °C 47.1 °F /  8.4 °C 30.08 in /  1018.5 hPa ESE 2.3 mph /  3.7 km/h 2.3 mph /  3.7 km/h 100 % 0.00 in /  0 mm 0.0 W/m2 CLR
05:35 47.3 °F /  8.5 °C 47.3 °F /  8.5 °C 30.08 in /  1018.5 hPa Calm     100 % 0.00 in /  0 mm 0.0 W/m2 CLR
05:40 47.7 °F /  8.7 °C 47.7 °F /  8.7 °C 30.08 in /  1018.5 hPa SSE 2.6 mph /  4.2 km/h 2.6 mph /  4.2 km/h 100 % 0.00 in /  0 mm 0.0 W/m2 CLR
05:45 47.8 °F /  8.8 °C 47.8 °F /  8.8 °C 30.08 in /  1018.5 hPa Calm     100 % 0.00 in /  0 mm 0.0 W/m2 CLR
05:50 47.8 °F /  8.8 °C 47.8 °F /  8.8 °C 30.09 in /  1018.8 hPa Calm     100 % 0.00 in /  0 mm 0.0 W/m2 CLR
05:55 48.0 °F /  8.9 °C 48.0 °F /  8.9 °C 30.08 in /  1018.5 hPa Calm     100 % 0.00 in /  0 mm 0.0 W/m2 CLR
06:00 47.8 °F /  8.8 °C 47.8 °F /  8.8 °C 30.09 in /  1018.8 hPa South 2.9 mph /  4.7 km/h 2.9 mph /  4.7 km/h 100 % 0.00 in /  0 mm 0.0 W/m2 CLR
06:05 48.0 °F /  8.9 °C 48.0 °F /  8.9 °C 30.09 in /  1018.8 hPa Calm     100 % 0.00 in /  0 mm 0.0 W/m2 CLR
06:10 47.8 °F /  8.8 °C 47.8 °F /  8.8 °C 30.09 in /  1018.8 hPa Calm     100 % 0.00 in /  0 mm 0.0 W/m2 CLR
06:15 47.8 °F /  8.8 °C 47.8 °F /  8.8 °C 30.09 in /  1018.8 hPa Calm     100 % 0.00 in /  0 mm 0.0 W/m2 CLR
06:20 47.7 °F /  8.7 °C 47.7 °F /  8.7 °C 30.08 in /  1018.5 hPa Calm     100 % 0.00 in /  0 mm 0.0 W/m2 CLR
06:25 47.3 °F /  8.5 °C 47.3 °F /  8.5 °C 30.09 in /  1018.8 hPa Calm     100 % 0.00 in /  0 mm 0.0 W/m2 CLR
06:30 47.3 °F /  8.5 °C 47.3 °F /  8.5 °C 30.09 in /  1018.8 hPa Calm     100 % 0.00 in /  0 mm 0.0 W/m2 CLR
06:35 47.3 °F /  8.5 °C 47.3 °F /  8.5 °C 30.09 in /  1018.8 hPa SSE 1.2 mph /  1.9 km/h   100 % 0.00 in /  0 mm 0.0 W/m2 CLR
06:40 47.5 °F /  8.6 °C 47.5 °F /  8.6 °C 30.08 in /  1018.5 hPa Calm     100 % 0.00 in /  0 mm 0.0 W/m2 CLR
06:45 47.7 °F /  8.7 °C 47.7 °F /  8.7 °C 30.08 in /  1018.5 hPa Calm     100 % 0.00 in /  0 mm 0.0 W/m2 CLR
06:50 47.8 °F /  8.8 °C 47.8 °F /  8.8 °C 30.08 in /  1018.5 hPa SE 1.2 mph /  1.9 km/h 1.2 mph /  1.9 km/h 100 % 0.00 in /  0 mm 0.0 W/m2 CLR
06:56 48.0 °F /  8.9 °C 48.0 °F /  8.9 °C 30.09 in /  1018.8 hPa Calm     100 % 0.00 in /  0 mm 0.0 W/m2 CLR
07:01 47.7 °F /  8.7 °C 47.7 °F /  8.7 °C 30.09 in /  1018.8 hPa Calm     100 % 0.00 in /  0 mm 0.0 W/m2 CLR
07:06 47.7 °F /  8.7 °C 47.7 °F /  8.7 °C 30.09 in /  1018.8 hPa Calm     100 % 0.00 in /  0 mm 0.0 W/m2 CLR
07:11 48.0 °F /  8.9 °C 48.0 °F /  8.9 °C 30.09 in /  1018.8 hPa Calm     100 % 0.00 in /  0 mm 0.2 W/m2 CLR
07:16 48.0 °F /  8.9 °C 48.0 °F /  8.9 °C 30.09 in /  1018.8 hPa SSE 1.2 mph /  1.9 km/h 1.2 mph /  1.9 km/h 100 % 0.00 in /  0 mm 0.3 W/m2 CLR
07:21 48.6 °F /  9.2 °C 48.6 °F /  9.2 °C 30.09 in /  1018.8 hPa ESE 2.3 mph /  3.7 km/h 2.3 mph /  3.7 km/h 100 % 0.00 in /  0 mm 0.7 W/m2 CLR
07:26 48.9 °F /  9.4 °C 48.9 °F /  9.4 °C 30.09 in /  1018.8 hPa SE 1.2 mph /  1.9 km/h 1.2 mph /  1.9 km/h 100 % 0.00 in /  0 mm 1.0 W/m2 CLR
07:36 49.5 °F /  9.7 °C 49.5 °F /  9.7 °C 30.09 in /  1018.8 hPa SSE 1.2 mph /  1.9 km/h   100 % 0.00 in /  0 mm 2.6 W/m2 CLR
07:41 49.8 °F /  9.9 °C 49.8 °F /  9.9 °C 30.09 in /  1018.8 hPa SSE 3.5 mph /  5.6 km/h 3.5 mph /  5.6 km/h 100 % 0.00 in /  0 mm 3.4 W/m2 CLR
07:42 50.0 °F /  10 °C 50.0 °F /  10 °C 30.09 in /  1018.8 hPa ESE 2.3 mph /  3.7 km/h 2.3 mph /  3.7 km/h 100 % 0.00 in /  0 mm 3.7 W/m2 CLR
07:47 50.2 °F /  10.1 °C 50.2 °F /  10.1 °C 30.09 in /  1018.8 hPa Calm     100 % 0.00 in /  0 mm 5.2 W/m2 CLR
07:52 50.7 °F /  10.4 °C 50.7 °F /  10.4 °C 30.09 in /  1018.8 hPa Calm     100 % 0.00 in /  0 mm 6.9 W/m2 CLR
07:57 50.9 °F /  10.5 °C 50.9 °F /  10.5 °C 30.09 in /  1018.8 hPa SSE 4.6 mph /  7.4 km/h 4.6 mph /  7.4 km/h 100 % 0.00 in /  0 mm 8.4 W/m2 CLR
08:02 51.3 °F /  10.7 °C 51.3 °F /  10.7 °C 30.08 in /  1018.5 hPa SE 1.2 mph /  1.9 km/h   100 % 0.00 in /  0 mm 8.0 W/m2 OVC
08:07 51.6 °F /  10.9 °C 51.6 °F /  10.9 °C 30.09 in /  1018.8 hPa SSE 4.6 mph /  7.4 km/h 4.6 mph /  7.4 km/h 100 % 0.00 in /  0 mm 8.6 W/m2 OVC
08:12 52.0 °F /  11.1 °C 52.0 °F /  11.1 °C 30.09 in /  1018.8 hPa ESE 3.6 mph /  5.8 km/h 3.6 mph /  5.8 km/h 100 % 0.00 in /  0 mm 10.0 W/m2 OVC
08:17 52.2 °F /  11.2 °C 52.2 °F /  11.2 °C 30.09 in /  1018.8 hPa SSW 1.4 mph /  2.3 km/h 1.4 mph /  2.3 km/h 100 % 0.00 in /  0 mm 12.0 W/m2 OVC
08:22 52.5 °F /  11.4 °C 52.5 °F /  11.4 °C 30.09 in /  1018.8 hPa SE 1.5 mph /  2.4 km/h 1.5 mph /  2.4 km/h 100 % 0.00 in /  0 mm 20.5 W/m2 OVC
08:27 52.7 °F /  11.5 °C 52.7 °F /  11.5 °C 30.08 in /  1018.5 hPa SE 2.3 mph /  3.7 km/h 2.3 mph /  3.7 km/h 100 % 0.00 in /  0 mm 24.4 W/m2 OVC
08:33 53.1 °F /  11.7 °C 53.1 °F /  11.7 °C 30.09 in /  1018.8 hPa SSE 3.5 mph /  5.6 km/h 3.5 mph /  5.6 km/h 100 % 0.00 in /  0 mm 24.0 W/m2 OVC
08:38 53.1 °F /  11.7 °C 53.1 °F /  11.7 °C 30.09 in /  1018.8 hPa ESE 2.3 mph /  3.7 km/h 2.3 mph /  3.7 km/h 100 % 0.00 in /  0 mm 28.0 W/m2 OVC
08:43 53.4 °F /  11.9 °C 53.4 °F /  11.9 °C 30.09 in /  1018.8 hPa SE 1.7 mph /  2.7 km/h 1.7 mph /  2.7 km/h 100 % 0.00 in /  0 mm 49.9 W/m2 OVC
08:48 54.0 °F /  12.2 °C 54.0 °F /  12.2 °C 30.09 in /  1018.8 hPa SSE 4.4 mph /  7.1 km/h 4.4 mph /  7.1 km/h 100 % 0.00 in /  0 mm 51.1 W/m2 OVC
08:53 54.5 °F /  12.5 °C 54.2 °F /  12.3 °C 30.09 in /  1018.8 hPa East 7.2 mph /  11.6 km/h 7.2 mph /  11.6 km/h 99 % 0.00 in /  0 mm 54.6 W/m2 OVC
08:58 54.9 °F /  12.7 °C 54.3 °F /  12.4 °C 30.09 in /  1018.8 hPa South 8.1 mph /  13 km/h 8.1 mph /  13 km/h 98 % 0.00 in /  0 mm 76.6 W/m2 BKN
09:03 55.2 °F /  12.9 °C 54.7 °F /  12.6 °C 30.09 in /  1018.8 hPa ESE 3.5 mph /  5.6 km/h 3.5 mph /  5.6 km/h 98 % 0.00 in /  0 mm 82.4 W/m2 BKN
09:08 55.8 °F /  13.2 °C 55.2 °F /  12.9 °C 30.09 in /  1018.8 hPa SSE 2.3 mph /  3.7 km/h 2.3 mph /  3.7 km/h 98 % 0.00 in /  0 mm 79.0 W/m2 BKN
09:13 55.9 °F /  13.3 °C 55.1 °F /  12.8 °C 30.09 in /  1018.8 hPa NW 4.6 mph /  7.4 km/h 4.6 mph /  7.4 km/h 97 % 0.00 in /  0 mm 57.2 W/m2 OVC
09:18 55.8 °F /  13.2 °C 54.6 °F /  12.6 °C 30.10 in /  1019.2 hPa SSE 10.4 mph /  16.7 km/h 10.4 mph /  16.7 km/h 96 % 0.00 in /  0 mm 47.7 W/m2 OVC
09:23 55.2 °F /  12.9 °C 54.7 °F /  12.6 °C 30.10 in /  1019.2 hPa SE 2.6 mph /  4.2 km/h 2.6 mph /  4.2 km/h 98 % 0.00 in /  0 mm 85.0 W/m2 BKN
09:28 55.2 °F /  12.9 °C 54.7 °F /  12.6 °C 30.09 in /  1018.8 hPa SSE 4.6 mph /  7.4 km/h 4.6 mph /  7.4 km/h 98 % 0.00 in /  0 mm 85.1 W/m2 BKN
09:33 55.8 °F /  13.2 °C 54.9 °F /  12.7 °C 30.10 in /  1019.2 hPa ESE 1.7 mph /  2.7 km/h 1.7 mph /  2.7 km/h 97 % 0.00 in /  0 mm 115.9 W/m2 BKN
09:38 55.9 °F /  13.3 °C 54.8 °F /  12.7 °C 30.10 in /  1019.2 hPa WSW 6.9 mph /  11.1 km/h 6.9 mph /  11.1 km/h 96 % 0.00 in /  0 mm 158.5 W/m2 BKN
Wether-Above
Compliments of Weather Underground - 1.25 mb
Welcome to Weather-Above
Cheddleton weather station supplies various organisations with data from our weather station one of them is the weather Underground this information displayed here is coming from the weather Underground server 

If any information is used please acknowledge the source to www weather-above.com or weather Underground